Time;durP1;ratioP1;P1;durP2;ratioP2;P2;SDS_P1;SDS_P2;PMS_P1;PMS_P2;Temp;Humidity;BMP_temperature;BMP_pressure;BME280_temperature;BME280_humidity;BME280_pressure;Samples;Min_cycle;Max_cycle;Signal;HPM_P1;HPM_P2
2024/04/01 00:02:15;;;;;;;1.88;1.00;;;;;;;10.03;100.00;99276.63;5270376;28;20096;-74
2024/04/01 00:04:45;;;;;;;3.92;0.98;;;;;;;9.95;100.00;99284.88;5275485;28;20362;-74
2024/04/01 00:07:16;;;;;;;3.85;1.13;;;;;;;9.87;100.00;99282.34;5272789;28;20024;-74
2024/04/01 00:09:46;;;;;;;2.78;1.17;;;;;;;9.73;100.00;99275.28;5273630;28;20039;-73
2024/04/01 00:12:17;;;;;;;3.22;1.15;;;;;;;9.66;100.00;99277.94;5269046;28;20477;-74
2024/04/01 00:14:47;;;;;;;4.82;1.40;;;;;;;9.63;100.00;99272.97;5270050;28;20020;-74
2024/04/01 00:17:19;;;;;;;1.90;0.90;;;;;;;9.61;100.00;99272.34;5277487;28;20034;-74
2024/04/01 00:19:50;;;;;;;1.33;0.95;;;;;;;9.66;100.00;99271.75;5268878;28;20056;-74
2024/04/01 00:22:20;;;;;;;1.10;1.00;;;;;;;9.69;100.00;99269.50;5277830;28;20115;-74
2024/04/01 00:24:51;;;;;;;1.50;0.98;;;;;;;9.81;100.00;99257.19;5275348;28;20039;-73
2024/04/01 00:27:21;;;;;;;3.50;1.35;;;;;;;9.84;100.00;99247.94;5277132;28;20069;-74
2024/04/01 00:29:52;;;;;;;3.53;1.02;;;;;;;9.82;100.00;99241.94;5267805;28;20105;-73
2024/04/01 00:32:22;;;;;;;2.17;1.08;;;;;;;9.83;100.00;99240.91;5267446;28;20227;-74
2024/04/01 00:34:53;;;;;;;2.20;0.82;;;;;;;9.78;100.00;99244.19;5264909;28;20134;-74
2024/04/01 00:37:23;;;;;;;1.88;0.80;;;;;;;9.76;100.00;99232.03;5269511;28;20027;-74
2024/04/01 00:39:54;;;;;;;2.25;0.95;;;;;;;9.71;100.00;99238.00;5274692;28;20031;-74
2024/04/01 00:42:24;;;;;;;1.42;0.95;;;;;;;9.69;100.00;99241.88;5272391;28;20051;-74
2024/04/01 00:44:54;;;;;;;2.30;0.77;;;;;;;9.64;100.00;99244.34;5272417;28;20038;-74
2024/04/01 00:47:26;;;;;;;2.78;1.08;;;;;;;9.57;100.00;99233.59;5269760;28;20032;-73
2024/04/01 00:49:57;;;;;;;2.00;1.10;;;;;;;9.50;100.00;99244.28;5271949;28;20027;-73
2024/04/01 00:52:28;;;;;;;2.85;0.90;;;;;;;9.45;100.00;99238.69;5276580;28;20024;-74
2024/04/01 00:54:59;;;;;;;1.35;0.90;;;;;;;9.43;100.00;99246.09;5269723;28;20026;-73
2024/04/01 00:57:30;;;;;;;4.22;1.30;;;;;;;9.43;100.00;99254.13;5270232;28;20114;-74
2024/04/01 01:00:01;;;;;;;3.45;1.10;;;;;;;9.41;100.00;99245.47;5270826;28;20098;-74
2024/04/01 01:02:32;;;;;;;1.98;1.10;;;;;;;9.31;100.00;99245.81;5264386;28;20024;-73
2024/04/01 01:05:03;;;;;;;1.65;0.82;;;;;;;9.32;100.00;99252.00;5271426;28;20494;-74
2024/04/01 01:07:33;;;;;;;1.90;1.10;;;;;;;9.40;100.00;99251.84;5271796;28;20047;-74
2024/04/01 01:10:13;;;;;;;1.67;1.02;;;;;;;9.43;100.00;99256.78;5269723;28;20023;-74
2024/04/01 01:12:44;;;;;;;1.63;1.05;;;;;;;9.41;100.00;99261.53;5273119;28;20377;-74
2024/04/01 01:15:14;;;;;;;1.80;1.00;;;;;;;9.74;100.00;99253.69;5276024;28;20036;-74
2024/04/01 01:17:49;;;;;;;1.63;0.90;;;;;;;9.77;100.00;99247.06;5270674;28;20081;-74
2024/04/01 01:20:21;;;;;;;1.23;0.70;;;;;;;9.81;100.00;99245.66;5272252;28;20079;-73
2024/04/01 01:23:02;;;;;;;3.25;1.30;;;;;;;9.82;100.00;99242.78;5267716;28;20554;-73
2024/04/01 01:25:37;;;;;;;2.00;1.10;;;;;;;9.75;100.00;99252.66;5279536;28;20057;-73
2024/04/01 01:28:15;;;;;;;1.85;0.88;;;;;;;9.71;100.00;99262.09;5271853;28;20117;-73
2024/04/01 01:31:05;;;;;;;1.45;0.88;;;;;;;9.70;100.00;99257.78;5270451;28;20044;-73
2024/04/01 01:33:35;;;;;;;2.88;0.77;;;;;;;9.69;100.00;99266.84;5272459;28;20027;-73
2024/04/01 01:36:21;;;;;;;2.40;1.05;;;;;;;9.63;100.00;99253.41;5266369;28;20023;-74
2024/04/01 01:38:51;;;;;;;2.30;0.60;;;;;;;9.62;100.00;99255.25;5273271;27;20053;-74
2024/04/01 01:41:22;;;;;;;2.60;1.13;;;;;;;9.63;100.00;99256.06;5277344;28;20016;-74
2024/04/01 01:43:52;;;;;;;2.30;1.05;;;;;;;9.52;100.00;99255.59;5270281;27;20028;-74
2024/04/01 01:46:23;;;;;;;1.30;0.90;;;;;;;9.60;100.00;99266.16;5280963;28;20477;-74
2024/04/01 01:48:53;;;;;;;1.52;1.10;;;;;;;9.50;100.00;99268.38;5271696;28;20047;-74
2024/04/01 01:51:26;;;;;;;1.23;0.90;;;;;;;9.46;100.00;99271.66;5271859;28;20129;-74
2024/04/01 01:53:57;;;;;;;2.30;1.02;;;;;;;9.41;100.00;99277.59;5275337;28;20027;-74
2024/04/01 01:56:29;;;;;;;1.35;1.02;;;;;;;9.38;100.00;99269.13;5271873;28;20039;-74
2024/04/01 01:59:00;;;;;;;1.88;0.90;;;;;;;9.40;100.00;99272.44;5272621;28;20028;-74
2024/04/01 02:01:30;;;;;;;1.58;0.85;;;;;;;9.48;100.00;99272.25;5261834;28;20016;-73
2024/04/01 02:04:01;;;;;;;0.90;0.80;;;;;;;9.47;100.00;99268.75;5265656;28;20016;-74
2024/04/01 02:06:32;;;;;;;1.65;0.77;;;;;;;9.46;100.00;99268.97;5274477;28;20030;-74
2024/04/01 02:09:03;;;;;;;3.17;0.98;;;;;;;9.40;100.00;99275.94;5277252;28;20028;-74
2024/04/01 02:11:33;;;;;;;1.48;0.88;;;;;;;9.39;100.00;99268.94;5272761;27;20099;-74
2024/04/01 02:14:04;;;;;;;1.27;1.08;;;;;;;9.39;100.00;99257.38;5272746;28;20699;-74
2024/04/01 02:16:35;;;;;;;1.92;0.98;;;;;;;9.28;100.00;99278.31;5277335;27;20389;-73
2024/04/01 02:19:06;;;;;;;2.72;0.80;;;;;;;9.53;100.00;99281.34;5279139;28;20388;-74
2024/04/01 02:21:37;;;;;;;1.27;0.80;;;;;;;9.48;100.00;99289.16;5282442;28;20024;-74
2024/04/01 02:24:08;;;;;;;2.33;0.82;;;;;;;9.38;100.00;99283.31;5274531;28;20023;-74
2024/04/01 02:26:38;;;;;;;1.38;1.13;;;;;;;9.36;100.00;99288.06;5271618;28;20443;-74
2024/04/01 02:29:09;;;;;;;1.70;0.90;;;;;;;9.41;100.00;99277.59;5269054;28;20023;-74
2024/04/01 02:31:40;;;;;;;0.80;0.80;;;;;;;9.50;100.00;99270.22;5267684;28;20107;-74
2024/04/01 02:34:10;;;;;;;1.98;1.13;;;;;;;9.63;100.00;99270.28;5268018;28;20031;-74
2024/04/01 02:36:41;;;;;;;2.50;0.90;;;;;;;9.69;100.00;99268.66;5274530;28;20028;-73
2024/04/01 02:39:16;;;;;;;3.10;1.20;;;;;;;9.71;100.00;99270.13;5281056;28;20052;-74
2024/04/01 02:41:49;;;;;;;1.35;1.05;;;;;;;9.79;100.00;99266.47;5276720;28;20032;-74
2024/04/01 02:44:20;;;;;;;3.67;1.75;;;;;;;9.89;100.00;99266.06;5277522;28;20089;-74
2024/04/01 02:46:50;;;;;;;2.95;0.90;;;;;;;9.96;100.00;99269.63;5274701;28;20023;-74
2024/04/01 02:49:21;;;;;;;1.27;0.90;;;;;;;9.96;100.00;99281.16;5275559;28;20064;-74
2024/04/01 02:51:51;;;;;;;2.47;1.00;;;;;;;9.89;100.00;99301.75;5276142;28;20031;-74
2024/04/01 02:54:23;;;;;;;0.80;0.65;;;;;;;9.73;100.00;99294.03;5268775;28;20073;-73
2024/04/01 02:56:54;;;;;;;3.53;0.98;;;;;;;9.68;100.00;99285.75;5274577;28;20471;-73
2024/04/01 02:59:25;;;;;;;2.28;0.82;;;;;;;9.67;100.00;99286.78;5279931;28;20027;-74
2024/04/01 03:01:55;;;;;;;1.50;0.82;;;;;;;9.53;100.00;99280.53;5275929;28;20024;-74
2024/04/01 03:04:26;;;;;;;2.35;0.90;;;;;;;9.69;100.00;99277.53;5273294;28;20104;-73
2024/04/01 03:06:57;;;;;;;1.33;0.77;;;;;;;9.70;100.00;99281.03;5280959;28;20050;-74
2024/04/01 03:09:27;;;;;;;1.70;0.90;;;;;;;9.62;100.00;99275.84;5272452;28;20024;-73
2024/04/01 03:11:58;;;;;;;1.45;0.90;;;;;;;9.46;100.00;99272.47;5271054;28;20065;-73
2024/04/01 03:14:28;;;;;;;1.40;0.80;;;;;;;9.39;100.00;99273.44;5282555;28;20027;-73
2024/04/01 03:16:59;;;;;;;1.30;1.00;;;;;;;9.32;100.00;99268.88;5276218;28;20028;-73
2024/04/01 03:19:29;;;;;;;2.92;1.73;;;;;;;9.25;100.00;99259.16;5270902;28;20036;-73
2024/04/01 03:22:00;;;;;;;1.55;0.93;;;;;;;9.28;100.00;99259.59;5275660;28;20024;-73
2024/04/01 03:24:30;;;;;;;2.78;1.05;;;;;;;9.30;100.00;99265.59;5276035;28;20464;-73
2024/04/01 03:27:01;;;;;;;4.15;1.27;;;;;;;9.28;100.00;99272.13;5271224;28;20023;-73
2024/04/01 03:29:31;;;;;;;4.40;1.33;;;;;;;9.46;100.00;99266.28;5275359;28;20042;-74
2024/04/01 03:32:02;;;;;;;2.15;0.90;;;;;;;9.41;100.00;99271.41;5274493;28;20068;-73
2024/04/01 03:34:32;;;;;;;1.83;1.08;;;;;;;9.42;100.00;99273.88;5275334;28;20043;-74
2024/04/01 03:37:03;;;;;;;1.83;1.27;;;;;;;9.39;100.00;99268.94;5271432;28;20027;-74
2024/04/01 03:39:33;;;;;;;3.30;1.27;;;;;;;9.33;100.00;99273.19;5272150;28;20035;-74
2024/04/01 03:42:04;;;;;;;1.75;0.80;;;;;;;9.34;100.00;99269.53;5269296;28;20058;-74
2024/04/01 03:44:34;;;;;;;4.85;1.30;;;;;;;9.37;100.00;99272.81;5278555;28;20016;-74
2024/04/01 03:47:05;;;;;;;4.13;1.17;;;;;;;9.41;100.00;99269.56;5278508;28;20024;-73
2024/04/01 03:49:35;;;;;;;2.00;1.13;;;;;;;9.66;100.00;99274.44;5274346;28;20027;-74
2024/04/01 03:52:06;;;;;;;2.85;1.05;;;;;;;9.73;100.00;99275.28;5277596;28;20018;-73
2024/04/01 03:54:36;;;;;;;3.38;1.20;;;;;;;9.66;100.00;99283.28;5279535;28;20020;-74
2024/04/01 03:57:08;;;;;;;2.28;1.20;;;;;;;9.56;100.00;99280.97;5268313;28;20473;-74
2024/04/01 03:59:39;;;;;;;3.60;0.90;;;;;;;9.51;100.00;99279.91;5272823;28;20027;-74
2024/04/01 04:02:09;;;;;;;1.60;1.08;;;;;;;9.43;100.00;99266.69;5273676;28;20038;-74
2024/04/01 04:04:40;;;;;;;2.47;1.08;;;;;;;9.38;100.00;99279.81;5278890;28;20023;-74
2024/04/01 04:07:10;;;;;;;2.22;1.10;;;;;;;9.33;100.00;99275.06;5274345;28;20074;-74
2024/04/01 04:09:40;;;;;;;1.95;1.30;;;;;;;9.27;100.00;99276.66;5277837;28;20031;-74
2024/04/01 04:12:11;;;;;;;4.28;1.20;;;;;;;9.16;100.00;99268.38;5273336;28;20091;-73
2024/04/01 04:14:41;;;;;;;1.33;0.95;;;;;;;9.26;100.00;99275.03;5273986;28;20016;-74
2024/04/01 04:17:12;;;;;;;2.05;1.20;;;;;;;9.28;100.00;99278.31;5273989;28;20052;-74
2024/04/01 04:19:42;;;;;;;1.83;1.33;;;;;;;9.28;100.00;99272.13;5272335;28;20081;-74
2024/04/01 04:22:13;;;;;;;3.28;1.50;;;;;;;9.22;100.00;99272.94;5271783;28;20019;-74
2024/04/01 04:24:43;;;;;;;3.22;1.30;;;;;;;9.20;100.00;99272.31;5276139;28;20038;-73
2024/04/01 04:27:14;;;;;;;2.35;1.25;;;;;;;9.23;100.00;99267.38;5271370;28;20027;-73
2024/04/01 04:29:44;;;;;;;2.83;1.30;;;;;;;9.23;100.00;99270.06;5276478;28;20027;-74
2024/04/01 04:32:15;;;;;;;3.58;1.50;;;;;;;9.31;100.00;99271.75;5271307;28;20016;-74
2024/04/01 04:34:47;;;;;;;1.70;1.27;;;;;;;9.32;100.00;99266.19;5271149;28;20027;-74
2024/04/01 04:37:17;;;;;;;2.10;1.23;;;;;;;9.24;100.00;99274.41;5268512;28;20141;-74
2024/04/01 04:39:48;;;;;;;1.98;1.20;;;;;;;9.24;100.00;99284.28;5270597;28;20493;-74
2024/04/01 04:42:18;;;;;;;2.15;1.27;;;;;;;9.17;100.00;99280.72;5270294;28;20034;-74
2024/04/01 04:44:49;;;;;;;1.73;1.20;;;;;;;9.14;100.00;99286.47;5279036;28;20020;-74
2024/04/01 04:47:20;;;;;;;1.48;1.13;;;;;;;9.06;100.00;99290.09;5270769;28;20106;-73
2024/04/01 04:49:50;;;;;;;3.47;1.13;;;;;;;8.98;100.00;99295.59;5280633;28;20044;-74
2024/04/01 04:52:21;;;;;;;2.65;1.63;;;;;;;8.99;100.00;99299.94;5277788;28;20012;-74
2024/04/01 04:54:51;;;;;;;3.00;1.23;;;;;;;9.03;100.00;99307.34;5283953;28;20409;-74
2024/04/01 04:57:22;;;;;;;1.98;1.15;;;;;;;9.07;100.00;99307.81;5278367;28;20056;-74
2024/04/01 04:59:52;;;;;;;2.55;1.50;;;;;;;9.07;100.00;99313.97;5278456;28;20110;-74
2024/04/01 05:02:23;;;;;;;4.03;1.40;;;;;;;9.04;100.00;99316.25;5274281;28;20073;-74
2024/04/01 05:04:53;;;;;;;1.75;1.60;;;;;;;9.37;100.00;99323.66;5280484;28;20048;-74
2024/04/01 05:07:24;;;;;;;2.80;1.10;;;;;;;9.34;100.00;99319.56;5272524;28;20020;-74
2024/04/01 05:09:54;;;;;;;1.70;1.15;;;;;;;9.27;100.00;99321.34;5279919;28;20121;-73
2024/04/01 05:12:26;;;;;;;4.45;1.70;;;;;;;9.31;100.00;99325.28;5270603;27;20509;-74
2024/04/01 05:14:57;;;;;;;4.25;1.60;;;;;;;9.39;100.00;99314.44;5268833;28;20024;-74
2024/04/01 05:17:27;;;;;;;3.97;1.73;;;;;;;9.32;100.00;99329.59;5277109;28;20039;-73
2024/04/01 05:19:58;;;;;;;4.75;1.90;;;;;;;9.28;100.00;99325.66;5279182;28;20537;-74
2024/04/01 05:22:29;;;;;;;4.35;1.50;;;;;;;9.22;100.00;99321.91;5271260;28;20020;-73
2024/04/01 05:24:59;;;;;;;3.42;1.63;;;;;;;9.19;100.00;99333.03;5277273;28;20026;-74
2024/04/01 05:27:30;;;;;;;3.88;1.80;;;;;;;9.16;100.00;99322.69;5271624;28;20250;-74
2024/04/01 05:30:03;;;;;;;3.00;1.48;;;;;;;9.11;100.00;99330.47;5279671;28;20023;-73
2024/04/01 05:32:34;;;;;;;3.85;1.92;;;;;;;9.11;100.00;99343.88;5278347;28;20038;-73
2024/04/01 05:35:05;;;;;;;3.65;1.83;;;;;;;9.06;100.00;99340.94;5276015;28;20023;-74
2024/04/01 05:37:35;;;;;;;3.92;1.90;;;;;;;8.97;100.00;99350.13;5273356;28;20032;-74
2024/04/01 05:40:06;;;;;;;9.38;1.67;;;;;;;8.98;100.00;99349.09;5274049;28;20031;-73
2024/04/01 05:42:37;;;;;;;8.75;1.50;;;;;;;8.96;100.00;99359.16;5272626;28;20056;-74
2024/04/01 05:45:10;;;;;;;2.70;1.52;;;;;;;8.91;100.00;99362.41;5273881;28;20349;-73
2024/04/01 05:47:43;;;;;;;5.57;1.83;;;;;;;8.95;100.00;99363.69;5270667;28;20028;-74
2024/04/01 05:50:22;;;;;;;5.07;2.10;;;;;;;8.95;100.00;99366.38;5281484;28;20500;-74
2024/04/01 05:52:54;;;;;;;5.32;2.63;;;;;;;8.97;100.00;99369.66;5277950;28;20051;-74
2024/04/01 05:55:25;;;;;;;9.73;3.45;;;;;;;9.06;100.00;99376.53;5279761;28;20027;-74
2024/04/01 05:57:56;;;;;;;5.07;3.17;;;;;;;9.10;100.00;99386.88;5278108;28;20031;-73
2024/04/01 06:00:26;;;;;;;8.15;3.00;;;;;;;9.21;100.00;99394.38;5277541;28;20034;-74
2024/04/01 06:03:05;;;;;;;12.95;3.85;;;;;;;9.23;100.00;99397.66;5285772;28;20028;-74
2024/04/01 06:05:36;;;;;;;9.32;3.40;;;;;;;9.30;100.00;99395.91;5277025;28;20379;-73
2024/04/01 06:08:06;;;;;;;7.28;2.72;;;;;;;9.38;100.00;99401.09;5284564;27;20024;-74
2024/04/01 06:10:40;;;;;;;12.38;3.60;;;;;;;9.58;100.00;99410.09;5280416;28;20026;-74
2024/04/01 06:13:15;;;;;;;5.75;3.33;;;;;;;9.76;100.00;99412.28;5278853;28;20522;-74
2024/04/01 06:15:49;;;;;;;9.63;3.63;;;;;;;9.77;100.00;99410.44;5275024;28;20019;-73
2024/04/01 06:18:23;;;;;;;8.57;3.65;;;;;;;9.78;100.00;99417.44;5278628;28;20020;-74
2024/04/01 06:20:58;;;;;;;5.78;3.58;;;;;;;9.89;100.00;99414.25;5273981;28;20023;-74
2024/04/01 06:23:29;;;;;;;8.65;3.53;;;;;;;9.98;100.00;99422.94;5274264;28;20589;-74
2024/04/01 06:26:05;;;;;;;7.47;3.80;;;;;;;9.98;100.00;99426.44;5276057;28;20538;-74
2024/04/01 06:28:39;;;;;;;9.10;4.15;;;;;;;10.00;100.00;99440.47;5278136;28;20032;-74
2024/04/01 06:31:19;;;;;;;11.40;3.92;;;;;;;10.15;100.00;99439.53;5283034;28;20503;-74
2024/04/01 06:33:53;;;;;;;10.52;5.43;;;;;;;10.20;100.00;99442.47;5282840;28;20029;-74
2024/04/01 06:36:29;;;;;;;8.85;4.65;;;;;;;10.29;100.00;99441.28;5275648;28;20545;-73
2024/04/01 06:39:04;;;;;;;10.27;5.30;;;;;;;10.30;100.00;99442.94;5279200;28;20225;-74
2024/04/01 06:41:38;;;;;;;8.98;4.85;;;;;;;10.31;100.00;99449.97;5273738;28;20027;-74
2024/04/01 06:44:10;;;;;;;12.45;5.70;;;;;;;10.33;100.00;99458.63;5278277;28;20064;-73
2024/04/01 06:46:44;;;;;;;8.00;5.10;;;;;;;10.38;100.00;99457.00;5279987;28;20027;-73
2024/04/01 06:49:15;;;;;;;8.95;5.35;;;;;;;10.38;100.00;99448.13;5277022;28;20027;-74
2024/04/01 06:51:49;;;;;;;9.23;4.63;;;;;;;10.43;100.00;99451.03;5275353;27;20430;-74
2024/04/01 06:54:19;;;;;;;8.55;4.32;;;;;;;10.47;100.00;99454.16;5273710;27;20073;-74
2024/04/01 06:56:50;;;;;;;9.48;4.82;;;;;;;10.50;100.00;99459.13;5276663;28;20107;-74
2024/04/01 06:59:21;;;;;;;8.75;4.68;;;;;;;10.50;100.00;99465.31;5277517;28;20481;-74
2024/04/01 07:01:52;;;;;;;6.18;3.45;;;;;;;10.61;100.00;99461.25;5279291;27;20023;-74
2024/04/01 07:04:22;;;;;;;8.18;3.80;;;;;;;10.63;100.00;99468.03;5280739;28;20766;-74
2024/04/01 07:06:53;;;;;;;10.77;3.75;;;;;;;10.61;100.00;99469.28;5277897;28;20265;-74
2024/04/01 07:09:23;;;;;;;5.95;3.83;;;;;;;10.62;100.00;99469.06;5279589;28;20032;-74
2024/04/01 07:11:54;;;;;;;8.15;3.75;;;;;;;10.65;100.00;99465.19;5279349;28;20039;-74
2024/04/01 07:14:27;;;;;;;5.53;3.38;;;;;;;10.79;100.00;99468.72;5280130;28;20400;-74
2024/04/01 07:16:58;;;;;;;12.70;4.10;;;;;;;10.78;100.00;99480.47;5276576;28;20027;-74
2024/04/01 07:19:28;;;;;;;6.70;3.63;;;;;;;10.79;100.00;99479.44;5279776;28;20029;-74
2024/04/01 07:21:59;;;;;;;12.00;3.90;;;;;;;10.88;100.00;99484.44;5278458;28;20020;-74
2024/04/01 07:24:29;;;;;;;9.57;4.25;;;;;;;11.01;100.00;99485.53;5279078;28;20072;-74
2024/04/01 07:27:00;;;;;;;6.13;3.55;;;;;;;11.02;100.00;99487.16;5271105;28;20054;-74
2024/04/01 07:29:31;;;;;;;8.55;3.85;;;;;;;11.05;100.00;99492.16;5273765;28;20102;-73
2024/04/01 07:32:01;;;;;;;7.85;3.75;;;;;;;11.09;100.00;99496.06;5279295;28;20016;-74
2024/04/01 07:34:32;;;;;;;8.93;3.50;;;;;;;11.05;100.00;99492.16;5268559;28;20020;-74
2024/04/01 07:37:02;;;;;;;8.10;3.00;;;;;;;11.12;100.00;99496.50;5275607;28;20066;-74
2024/04/01 07:39:33;;;;;;;7.72;2.80;;;;;;;11.10;100.00;99498.56;5277889;28;20131;-74
2024/04/01 07:42:04;;;;;;;6.13;2.55;;;;;;;11.14;100.00;99507.88;5274601;28;20103;-74
2024/04/01 07:44:34;;;;;;;8.48;2.38;;;;;;;11.12;100.00;99509.91;5275427;28;20028;-74
2024/04/01 07:47:05;;;;;;;5.13;2.58;;;;;;;11.30;100.00;99508.53;5269869;28;20029;-74
2024/04/01 07:49:36;;;;;;;5.15;2.50;;;;;;;11.57;100.00;99515.56;5269507;28;20035;-74
2024/04/01 07:52:08;;;;;;;28.52;11.32;;;;;;;11.59;100.00;99510.00;5279045;28;20016;-74
2024/04/01 07:54:38;;;;;;;5.65;3.10;;;;;;;11.63;100.00;99516.59;5277956;28;20118;-73
2024/04/01 07:57:10;;;;;;;6.15;2.72;;;;;;;11.60;100.00;99525.09;5277636;28;20012;-72
2024/04/01 07:59:41;;;;;;;9.00;4.55;;;;;;;11.66;100.00;99529.66;5274283;28;20020;-73
2024/04/01 08:02:12;;;;;;;5.82;2.85;;;;;;;11.44;100.00;99539.72;5279457;28;20485;-73
2024/04/01 08:04:42;;;;;;;10.43;5.60;;;;;;;11.42;100.00;99544.47;5277664;28;20019;-72
2024/04/01 08:07:14;;;;;;;6.40;2.83;;;;;;;11.34;100.00;99550.03;5273625;28;20452;-72
2024/04/01 08:09:44;;;;;;;5.30;2.25;;;;;;;11.41;100.00;99550.88;5274273;28;20381;-72
2024/04/01 08:12:15;;;;;;;4.30;3.45;;;;;;;11.46;100.00;99550.28;5272404;28;20024;-74
2024/04/01 08:14:46;;;;;;;7.93;3.05;;;;;;;11.58;100.00;99554.81;5273994;28;20180;-73
2024/04/01 08:17:16;;;;;;;3.92;2.55;;;;;;;11.67;100.00;99563.53;5270498;28;20088;-72
2024/04/01 08:19:47;;;;;;;5.55;2.72;;;;;;;11.69;100.00;99561.44;5273260;28;20065;-72
2024/04/01 08:22:18;;;;;;;5.20;2.83;;;;;;;11.74;100.00;99563.53;5277964;28;20512;-72
2024/04/01 08:24:49;;;;;;;4.97;2.58;;;;;;;11.81;100.00;99564.38;5277921;28;20026;-74
2024/04/01 08:27:19;;;;;;;4.72;2.30;;;;;;;11.67;100.00;99575.09;5271951;28;20040;-74
2024/04/01 08:29:50;;;;;;;9.32;2.20;;;;;;;11.72;100.00;99573.66;5276455;28;20024;-74
2024/04/01 08:32:20;;;;;;;5.93;2.33;;;;;;;11.79;100.00;99583.38;5272877;28;20016;-74
2024/04/01 08:34:51;;;;;;;4.43;2.05;;;;;;;11.87;100.00;99569.78;5275101;28;20366;-73
2024/04/01 08:37:21;;;;;;;8.73;2.53;;;;;;;11.70;100.00;99583.78;5279145;28;20393;-74
2024/04/01 08:39:52;;;;;;;5.38;2.35;;;;;;;11.67;100.00;99579.66;5261822;28;20039;-74
2024/04/01 08:42:23;;;;;;;5.93;2.13;;;;;;;11.70;100.00;99590.00;5277674;28;20035;-74
2024/04/01 08:44:59;;;;;;;5.93;2.63;;;;;;;11.71;100.00;99594.34;5268591;28;20084;-74
2024/04/01 08:47:34;;;;;;;5.35;2.30;;;;;;;11.64;100.00;99594.31;5267402;28;20036;-74
2024/04/01 08:50:10;;;;;;;4.88;2.10;;;;;;;11.65;100.00;99590.59;5274880;28;20050;-72
2024/04/01 08:52:52;;;;;;;5.38;2.00;;;;;;;11.76;100.00;99596.41;5273080;28;20016;-72
2024/04/01 08:55:24;;;;;;;5.85;2.15;;;;;;;11.74;100.00;99598.47;5270352;28;20212;-72
2024/04/01 08:57:55;;;;;;;4.45;1.88;;;;;;;11.80;100.00;99594.97;5270859;28;20487;-74
2024/04/01 09:00:26;;;;;;;5.53;2.55;;;;;;;11.61;100.00;99592.03;5275941;28;20110;-74
2024/04/01 09:02:57;;;;;;;3.63;2.00;;;;;;;12.18;100.00;99593.34;5278585;28;20062;-72
2024/04/01 09:05:28;;;;;;;6.00;1.95;;;;;;;12.19;100.00;99599.56;5270391;28;20027;-73
2024/04/01 09:07:59;;;;;;;5.60;1.77;;;;;;;12.22;100.00;99606.41;5274261;28;20469;-73
2024/04/01 09:10:30;;;;;;;7.93;1.90;;;;;;;12.23;100.00;99602.66;5279087;27;20016;-74
2024/04/01 09:13:03;;;;;;;5.35;1.95;;;;;;;12.29;100.00;99605.34;5272859;28;20015;-72
2024/04/01 09:15:34;;;;;;;2.15;1.52;;;;;;;12.31;100.00;99607.84;5268421;28;20051;-72
2024/04/01 09:18:04;;;;;;;3.65;1.50;;;;;;;12.27;100.00;99615.50;5276023;28;20027;-74
2024/04/01 09:20:35;;;;;;;6.13;1.70;;;;;;;12.38;100.00;99614.88;5278882;28;20473;-73
2024/04/01 09:23:05;;;;;;;3.25;1.80;;;;;;;12.33;100.00;99611.97;5276186;28;20358;-73
2024/04/01 09:25:36;;;;;;;3.88;2.38;;;;;;;12.38;100.00;99620.25;5263440;28;20023;-74
2024/04/01 09:28:07;;;;;;;6.85;1.90;;;;;;;12.46;100.00;99616.53;5271863;28;20036;-73
2024/04/01 09:30:37;;;;;;;5.18;2.03;;;;;;;12.50;100.00;99614.22;5279337;27;20065;-73
2024/04/01 09:33:08;;;;;;;4.60;1.55;;;;;;;12.57;100.00;99617.75;5275383;28;20366;-73
2024/04/01 09:35:38;;;;;;;6.97;1.88;;;;;;;12.61;100.00;99605.53;5277175;28;20012;-73
2024/04/01 09:38:09;;;;;;;4.28;1.90;;;;;;;12.74;100.00;99613.56;5274925;28;20027;-73
2024/04/01 09:40:40;;;;;;;8.02;2.30;;;;;;;12.73;100.00;99624.56;5275719;28;20019;-73
2024/04/01 09:43:10;;;;;;;4.88;1.63;;;;;;;12.60;100.00;99626.25;5278335;28;20440;-72
2024/04/01 09:45:42;;;;;;;4.82;2.53;;;;;;;12.70;100.00;99629.34;5279366;28;20016;-73
2024/04/01 09:48:13;;;;;;;3.65;1.70;;;;;;;12.73;100.00;99632.63;5281103;28;20032;-73
2024/04/01 09:50:45;;;;;;;21.85;12.82;;;;;;;12.72;100.00;99634.50;5278061;28;20362;-72
2024/04/01 09:53:16;;;;;;;49.95;25.65;;;;;;;12.68;100.00;99639.47;5275741;28;20362;-73
2024/04/01 09:56:25;;;;;;;50.78;26.90;;;;;;;12.82;100.00;99644.84;5281539;28;20080;-73
2024/04/01 09:59:39;;;;;;;5.88;2.38;;;;;;;12.85;100.00;99647.09;5279686;28;20089;-74
2024/04/01 10:02:46;;;;;;;2.95;1.42;;;;;;;12.96;100.00;99646.47;5271601;28;20015;-73
2024/04/01 10:05:37;;;;;;;3.67;1.52;;;;;;;13.07;100.00;99643.09;5271010;28;20043;-73
2024/04/01 10:08:27;;;;;;;4.93;2.17;;;;;;;13.25;100.00;99655.09;5273266;28;20412;-73
2024/04/01 10:11:15;;;;;;;5.57;2.28;;;;;;;13.30;100.00;99656.09;5278800;28;20160;-73
2024/04/01 10:13:47;;;;;;;4.55;2.50;;;;;;;13.32;100.00;99674.75;5272451;28;20008;-73
2024/04/01 10:16:27;;;;;;;5.03;2.60;;;;;;;13.25;100.00;99671.25;5277530;28;20042;-73
2024/04/01 10:19:19;;;;;;;2.97;1.48;;;;;;;13.32;100.00;99677.47;5271528;28;20024;-72
2024/04/01 10:22:27;;;;;;;2.72;1.35;;;;;;;13.28;100.00;99673.53;5278394;28;20032;-71
2024/04/01 10:25:10;;;;;;;3.42;1.60;;;;;;;13.41;100.00;99684.28;5276557;28;20631;-72
2024/04/01 10:28:21;;;;;;;3.03;1.27;;;;;;;13.43;100.00;99687.56;5277176;28;20397;-72
2024/04/01 10:30:58;;;;;;;4.65;1.80;;;;;;;13.49;100.00;99692.09;5282897;28;20024;-72
2024/04/01 10:33:34;;;;;;;2.88;1.60;;;;;;;13.61;100.00;99701.19;5272283;28;20016;-71
2024/04/01 10:36:21;;;;;;;3.95;1.40;;;;;;;13.78;100.00;99698.00;5281220;28;20068;-72
2024/04/01 10:39:02;;;;;;;2.95;1.05;;;;;;;13.84;100.00;99705.22;5283348;28;20024;-72
2024/04/01 10:41:57;;;;;;;2.47;1.20;;;;;;;13.80;100.00;99704.81;5278727;28;20098;-71
2024/04/01 10:44:43;;;;;;;2.13;1.25;;;;;;;13.91;100.00;99717.63;5273271;28;20031;-72
2024/04/01 10:47:50;;;;;;;6.28;1.20;;;;;;;14.16;100.00;99714.19;5277121;28;20622;-71
2024/04/01 10:50:32;;;;;;;2.58;0.93;;;;;;;14.26;100.00;99722.63;5275806;28;20106;-73
2024/04/01 10:53:15;;;;;;;1.98;1.13;;;;;;;14.40;100.00;99726.03;5269985;28;20026;-72
2024/04/01 10:56:08;;;;;;;3.90;1.10;;;;;;;14.33;100.00;99733.34;5274803;28;20032;-72
2024/04/01 10:59:16;;;;;;;5.57;1.30;;;;;;;14.35;100.00;99731.25;5279823;28;20053;-72
2024/04/01 11:02:21;;;;;;;1.70;1.30;;;;;;;14.30;100.00;99736.47;5276409;28;20149;-71
2024/04/01 11:05:07;;;;;;;3.80;1.10;;;;;;;14.24;100.00;99732.78;5280670;28;20110;-72
2024/04/01 11:07:42;;;;;;;3.90;1.02;;;;;;;14.39;100.00;99737.88;5274621;28;20023;-72
2024/04/01 11:10:23;;;;;;;2.65;1.13;;;;;;;15.40;100.00;99743.03;5273336;28;20027;-72
2024/04/01 11:13:03;;;;;;;2.33;1.20;;;;;;;15.47;100.00;99742.97;5271737;28;20072;-72
2024/04/01 11:15:35;;;;;;;1.92;1.20;;;;;;;15.39;100.00;99737.84;5272150;28;20059;-72
2024/04/01 11:18:40;;;;;;;7.10;1.35;;;;;;;15.40;100.00;99737.63;5277278;28;20027;-72
2024/04/01 11:21:28;;;;;;;2.80;1.10;;;;;;;15.52;100.00;99738.53;5278939;28;20022;-73
2024/04/01 11:24:09;;;;;;;3.55;1.42;;;;;;;15.40;100.00;99744.91;5271544;28;20160;-72
2024/04/01 11:26:49;;;;;;;3.15;1.80;;;;;;;15.41;100.00;99743.84;5275479;28;20023;-73
2024/04/01 11:29:36;;;;;;;5.28;1.73;;;;;;;15.22;100.00;99741.16;5275540;28;20023;-73
2024/04/01 11:32:10;;;;;;;4.03;2.40;;;;;;;15.37;100.00;99748.06;5269194;28;20019;-72
2024/04/01 11:35:08;;;;;;;1.45;1.10;;;;;;;15.47;100.00;99740.28;5270971;28;20016;-72
2024/04/01 11:37:46;;;;;;;7.88;2.47;;;;;;;15.59;100.00;99737.63;5276192;28;20020;-72
2024/04/01 11:40:20;;;;;;;3.17;2.10;;;;;;;15.79;100.00;99736.38;5277811;28;20393;-73
2024/04/01 11:42:58;;;;;;;3.23;1.60;;;;;;;15.70;100.00;99735.03;5275522;28;20085;-72
2024/04/01 11:45:33;;;;;;;5.28;1.05;;;;;;;15.90;100.00;99742.06;5277023;28;20055;-72
2024/04/01 11:48:05;;;;;;;4.07;1.83;;;;;;;16.10;100.00;99741.81;5276108;28;20058;-72
2024/04/01 11:50:37;;;;;;;8.98;5.40;;;;;;;16.29;100.00;99743.41;5275378;28;20028;-73
2024/04/01 11:53:08;;;;;;;3.78;1.50;;;;;;;16.42;100.00;99745.94;5279137;28;20019;-73
2024/04/01 11:55:49;;;;;;;4.90;1.10;;;;;;;16.24;100.00;99738.69;5271922;28;20019;-73
2024/04/01 11:58:20;;;;;;;1.55;1.20;;;;;;;16.55;100.00;99740.28;5277013;28;20403;-73
2024/04/01 12:00:53;;;;;;;5.05;1.63;;;;;;;16.62;100.00;99756.47;5272922;28;20027;-73